Terminal Aerodrome Forecast
Issued by NWS Sterling, VA

Current Version | Previous Version | Text Only | Print | Product List | Glossary Off
Versions: 1 2 3 4 5 6 7 8 9 10 11 12 13

000
FTUS41 KLWX 022332
TAFMRB
TAF
KMRB 022332Z 0300/0324 27005KT P6SM SCT090
     FM030700 00000KT P6SM SCT080
     FM030900 00000KT 3SM BR SCT080
     FM031300 00000KT P6SM SCT070
     FM031700 31006KT P6SM SCT060
     FM032000 31006KT P6SM BKN060=

USA.gov is the U.S. government's official web portal to all federal, state and local government web resources and services.